createdAt,value
2023-03-23T16:00:11.326Z,79.20
2023-03-23T16:02:38.581Z,79.10
2023-03-23T16:05:06.454Z,79.00
2023-03-23T16:07:33.806Z,79.00
2023-03-23T16:10:00.609Z,79.00
2023-03-23T16:12:27.921Z,78.80
2023-03-23T16:14:54.769Z,78.80
2023-03-23T16:17:21.871Z,78.60
2023-03-23T16:19:48.750Z,78.40
2023-03-23T16:22:17.149Z,78.30
2023-03-23T16:24:44.846Z,78.30
2023-03-23T16:27:12.382Z,78.50
2023-03-23T16:29:59.969Z,78.40
2023-03-23T16:32:26.524Z,78.50
2023-03-23T16:34:53.352Z,78.60
2023-03-23T16:37:20.490Z,78.60
2023-03-23T16:39:47.382Z,78.60
2023-03-23T16:42:14.168Z,78.60
2023-03-23T16:44:40.988Z,78.60
2023-03-23T16:47:10.991Z,78.50
2023-03-23T16:49:37.970Z,78.50
2023-03-23T16:52:04.811Z,78.40
2023-03-23T16:54:31.766Z,78.40
2023-03-23T16:56:58.716Z,78.40
2023-03-23T16:59:27.425Z,78.40
2023-03-23T17:01:54.476Z,78.40
2023-03-23T17:04:21.225Z,78.30
2023-03-23T17:06:48.931Z,78.20
2023-03-23T17:09:15.898Z,78.30
2023-03-23T17:11:42.667Z,78.30
2023-03-23T17:14:09.332Z,78.30
2023-03-23T17:16:36.275Z,78.30
2023-03-23T17:19:03.060Z,78.30
2023-03-23T17:21:29.951Z,78.40
2023-03-23T17:23:56.983Z,78.50
2023-03-23T17:26:23.696Z,78.50
2023-03-23T17:28:50.703Z,78.40
2023-03-23T17:31:17.430Z,78.40
2023-03-23T17:33:44.230Z,79.30
2023-03-23T17:36:11.309Z,78.60
2023-03-23T17:38:38.329Z,78.60
2023-03-23T17:41:07.856Z,78.70
2023-03-23T17:43:36.263Z,78.60
2023-03-23T17:46:03.220Z,78.60
2023-03-23T17:48:30.417Z,78.50
2023-03-23T17:51:02.189Z,78.60
2023-03-23T17:53:30.652Z,78.50
2023-03-23T17:55:58.186Z,78.50
2023-03-23T17:58:26.461Z,78.60
2023-03-23T18:00:53.821Z,78.60
2023-03-23T18:03:21.254Z,78.60
2023-03-23T18:05:47.885Z,78.70
2023-03-23T18:08:14.983Z,78.70
2023-03-23T18:10:41.959Z,78.80
2023-03-23T18:13:09.191Z,78.70
2023-03-23T18:15:37.115Z,78.70
2023-03-23T18:18:05.030Z,78.70
2023-03-23T18:20:32.211Z,78.70
2023-03-23T18:22:59.309Z,78.60
2023-03-23T18:25:26.256Z,78.60
2023-03-23T18:27:53.372Z,78.60
2023-03-23T18:30:20.234Z,78.50
2023-03-23T18:32:47.105Z,78.50
2023-03-23T18:35:14.037Z,79.60
2023-03-23T18:37:41.331Z,78.50
2023-03-23T18:40:12.751Z,78.50
2023-03-23T18:42:40.394Z,78.40
2023-03-23T18:45:07.688Z,78.30
2023-03-23T18:47:34.795Z,78.40
2023-03-23T18:50:02.989Z,78.30
2023-03-23T18:52:34.033Z,78.30
2023-03-23T18:55:01.183Z,78.30
2023-03-23T18:57:28.309Z,78.30
2023-03-23T18:59:55.176Z,78.40
2023-03-23T19:02:24.156Z,78.40
2023-03-23T19:04:51.107Z,78.30
2023-03-23T19:07:18.429Z,78.30
2023-03-23T19:09:47.351Z,78.30
2023-03-23T19:12:15.690Z,78.30
2023-03-23T19:14:43.039Z,78.30
2023-03-23T19:17:09.947Z,78.40
2023-03-23T19:19:38.434Z,78.40
2023-03-23T19:22:06.639Z,78.40
2023-03-23T19:24:33.701Z,78.30
2023-03-23T19:27:01.701Z,78.40
2023-03-23T19:29:28.551Z,78.40
2023-03-23T19:31:56.567Z,78.40
2023-03-23T19:34:24.526Z,78.50
2023-03-23T19:36:56.296Z,78.40
2023-03-23T19:39:30.215Z,78.40
2023-03-23T19:41:57.070Z,78.50
2023-03-23T19:44:23.998Z,79.40
2023-03-23T19:46:51.561Z,78.40
2023-03-23T19:49:18.450Z,78.40
2023-03-23T19:51:46.635Z,78.50
2023-03-23T19:54:13.532Z,78.40
2023-03-23T19:56:40.573Z,78.40
2023-03-23T19:59:10.547Z,78.40
2023-03-23T20:01:37.654Z,79.30
2023-03-23T20:04:05.366Z,78.40
2023-03-23T20:06:32.948Z,78.40
2023-03-23T20:09:01.272Z,78.30
2023-03-23T20:11:28.638Z,78.40
2023-03-23T20:13:55.566Z,78.30
2023-03-23T20:16:22.757Z,78.20
2023-03-23T20:18:50.362Z,78.20
2023-03-23T20:21:20.479Z,78.20
2023-03-23T20:23:47.832Z,78.20
2023-03-23T20:26:17.100Z,78.10
2023-03-23T20:28:45.657Z,78.20
2023-03-23T20:31:19.730Z,78.20
2023-03-23T20:33:59.977Z,78.20
2023-03-23T20:36:42.241Z,78.20
2023-03-23T20:39:10.910Z,78.20
2023-03-23T20:41:38.802Z,78.20
2023-03-23T20:44:06.873Z,78.20
2023-03-23T20:46:33.815Z,78.20
2023-03-23T20:49:01.073Z,78.20
2023-03-23T20:51:27.950Z,78.10
2023-03-23T20:53:54.824Z,78.10
2023-03-23T20:56:22.340Z,78.20
2023-03-23T20:58:49.262Z,78.10
2023-03-23T21:01:16.051Z,78.10
2023-03-23T21:03:43.425Z,78.20
2023-03-23T21:06:10.797Z,78.20
2023-03-23T21:08:38.730Z,78.30
2023-03-23T21:11:06.814Z,78.40
2023-03-23T21:13:33.669Z,78.40
2023-03-23T21:16:02.129Z,78.30
2023-03-23T21:18:29.380Z,78.30
2023-03-23T21:20:57.209Z,78.30
2023-03-23T21:23:26.492Z,78.30
2023-03-23T21:25:53.674Z,78.30
2023-03-23T21:28:20.788Z,78.40
2023-03-23T21:30:48.860Z,78.30
2023-03-23T21:33:15.941Z,78.40
2023-03-23T21:35:43.200Z,78.30
2023-03-23T21:38:19.736Z,78.30
2023-03-23T21:40:49.313Z,78.30
2023-03-23T21:43:19.424Z,78.40
2023-03-23T21:45:46.263Z,78.40
2023-03-23T21:48:13.306Z,78.40
2023-03-23T21:50:44.279Z,78.40
2023-03-23T21:53:12.978Z,78.40
2023-03-23T21:55:42.105Z,78.40
2023-03-23T21:58:09.580Z,78.40
2023-03-23T22:00:36.676Z,78.40
2023-03-23T22:03:04.900Z,78.50
2023-03-23T22:05:32.129Z,78.40
2023-03-23T22:07:59.174Z,78.40
2023-03-23T22:10:26.157Z,78.40
2023-03-23T22:12:55.485Z,78.40
2023-03-23T22:15:27.724Z,78.50
2023-03-23T22:17:55.529Z,78.50
2023-03-23T22:20:22.389Z,78.50
2023-03-23T22:22:49.253Z,78.50
2023-03-23T22:25:16.061Z,78.40
2023-03-23T22:27:49.676Z,78.40
2023-03-23T22:30:16.570Z,78.50
2023-03-23T22:32:43.365Z,78.50
2023-03-23T22:35:12.558Z,78.60
2023-03-23T22:37:39.357Z,78.70
2023-03-23T22:40:10.235Z,78.70
2023-03-23T22:42:37.009Z,78.70
2023-03-23T22:45:04.070Z,78.80
2023-03-23T22:47:31.305Z,78.80
2023-03-23T22:49:58.008Z,78.80
2023-03-23T22:52:24.730Z,78.90
2023-03-23T22:54:51.482Z,78.90
2023-03-23T22:57:18.375Z,78.90
2023-03-23T22:59:48.885Z,78.90
2023-03-23T23:02:15.721Z,79.00
2023-03-23T23:04:42.950Z,79.30
2023-03-23T23:07:14.186Z,79.10
2023-03-23T23:09:42.209Z,80.00
2023-03-23T23:12:09.387Z,79.10
2023-03-23T23:14:37.360Z,79.10
2023-03-23T23:17:04.873Z,79.10
2023-03-23T23:19:32.384Z,79.20
2023-03-23T23:22:09.273Z,79.30
2023-03-23T23:24:43.549Z,79.30
2023-03-23T23:27:10.278Z,79.40
2023-03-23T23:29:36.970Z,79.40
2023-03-23T23:32:03.912Z,79.50
2023-03-23T23:34:30.880Z,79.40
2023-03-23T23:36:59.378Z,79.50
2023-03-23T23:39:27.615Z,79.50
2023-03-23T23:41:55.570Z,79.60
2023-03-23T23:44:22.546Z,79.60
2023-03-23T23:46:49.253Z,79.70
2023-03-23T23:49:15.997Z,79.70
2023-03-23T23:51:44.600Z,79.80
2023-03-23T23:54:14.571Z,79.70
2023-03-23T23:56:41.586Z,79.80
2023-03-23T23:59:08.719Z,79.70
